sensor_id;sensor_type;location;lat;lon;timestamp;temperature;humidity
15906;DHT22;8051;50.820;4.884;2022-12-24T00:00:37;10.60;99.90
15906;DHT22;8051;50.820;4.884;2022-12-24T00:03:05;10.60;99.90
15906;DHT22;8051;50.820;4.884;2022-12-24T00:05:33;10.60;99.90
15906;DHT22;8051;50.820;4.884;2022-12-24T00:08:00;10.60;99.90
15906;DHT22;8051;50.820;4.884;2022-12-24T00:10:28;10.50;99.90
15906;DHT22;8051;50.820;4.884;2022-12-24T00:12:55;10.50;99.90
15906;DHT22;8051;50.820;4.884;2022-12-24T00:15:24;10.40;99.90
15906;DHT22;8051;50.820;4.884;2022-12-24T00:17:52;10.40;99.90
15906;DHT22;8051;50.820;4.884;2022-12-24T00:20:19;10.30;99.90
15906;DHT22;8051;50.820;4.884;2022-12-24T00:22:46;10.20;99.90
15906;DHT22;8051;50.820;4.884;2022-12-24T00:25:14;10.20;99.90
15906;DHT22;8051;50.820;4.884;2022-12-24T00:27:41;10.20;99.90
15906;DHT22;8051;50.820;4.884;2022-12-24T00:30:09;10.10;99.90
15906;DHT22;8051;50.820;4.884;2022-12-24T00:32:38;10.10;99.90
15906;DHT22;8051;50.820;4.884;2022-12-24T00:35:07;10.10;99.90
15906;DHT22;8051;50.820;4.884;2022-12-24T00:37:34;10.10;99.90
15906;DHT22;8051;50.820;4.884;2022-12-24T00:40:02;10.10;99.90
15906;DHT22;8051;50.820;4.884;2022-12-24T00:42:29;10.20;99.90
15906;DHT22;8051;50.820;4.884;2022-12-24T00:44:56;10.20;99.90
15906;DHT22;8051;50.820;4.884;2022-12-24T00:47:24;10.20;99.90
15906;DHT22;8051;50.820;4.884;2022-12-24T00:49:53;10.20;99.90
15906;DHT22;8051;50.820;4.884;2022-12-24T00:52:20;10.20;99.90
15906;DHT22;8051;50.820;4.884;2022-12-24T00:54:48;10.20;99.90
15906;DHT22;8051;50.820;4.884;2022-12-24T00:57:16;10.30;99.90
15906;DHT22;8051;50.820;4.884;2022-12-24T00:59:44;10.30;99.90
15906;DHT22;8051;50.820;4.884;2022-12-24T01:02:11;10.30;99.90
15906;DHT22;8051;50.820;4.884;2022-12-24T01:04:38;10.20;99.90
15906;DHT22;8051;50.820;4.884;2022-12-24T01:07:25;10.10;99.90
15906;DHT22;8051;50.820;4.884;2022-12-24T01:09:52;10.00;99.90
15906;DHT22;8051;50.820;4.884;2022-12-24T01:12:20;10.00;99.90
15906;DHT22;8051;50.820;4.884;2022-12-24T01:14:48;9.90;99.90
15906;DHT22;8051;50.820;4.884;2022-12-24T01:17:15;9.90;99.90
15906;DHT22;8051;50.820;4.884;2022-12-24T01:19:43;9.90;99.90
15906;DHT22;8051;50.820;4.884;2022-12-24T01:22:12;9.80;99.90
15906;DHT22;8051;50.820;4.884;2022-12-24T01:24:41;9.80;99.90
15906;DHT22;8051;50.820;4.884;2022-12-24T01:27:09;9.80;99.90
15906;DHT22;8051;50.820;4.884;2022-12-24T01:29:36;9.80;99.90
15906;DHT22;8051;50.820;4.884;2022-12-24T01:32:04;9.80;99.90
15906;DHT22;8051;50.820;4.884;2022-12-24T01:34:31;9.80;99.90
15906;DHT22;8051;50.820;4.884;2022-12-24T01:36:59;9.80;99.90
15906;DHT22;8051;50.820;4.884;2022-12-24T01:39:26;9.70;99.90
15906;DHT22;8051;50.820;4.884;2022-12-24T01:41:55;9.70;99.90
15906;DHT22;8051;50.820;4.884;2022-12-24T01:44:41;9.70;99.90
15906;DHT22;8051;50.820;4.884;2022-12-24T01:47:13;9.70;99.90
15906;DHT22;8051;50.820;4.884;2022-12-24T01:49:44;9.70;99.90
15906;DHT22;8051;50.820;4.884;2022-12-24T01:52:16;9.70;99.90
15906;DHT22;8051;50.820;4.884;2022-12-24T01:54:48;9.70;99.90
15906;DHT22;8051;50.820;4.884;2022-12-24T01:57:21;9.70;99.90
15906;DHT22;8051;50.820;4.884;2022-12-24T01:59:53;9.60;99.90
15906;DHT22;8051;50.820;4.884;2022-12-24T02:02:22;9.70;99.90
15906;DHT22;8051;50.820;4.884;2022-12-24T02:04:55;9.60;99.90
15906;DHT22;8051;50.820;4.884;2022-12-24T02:07:24;9.30;99.90
15906;DHT22;8051;50.820;4.884;2022-12-24T02:09:52;9.10;99.90
15906;DHT22;8051;50.820;4.884;2022-12-24T02:12:23;9.20;99.90
15906;DHT22;8051;50.820;4.884;2022-12-24T02:14:52;9.30;99.90
15906;DHT22;8051;50.820;4.884;2022-12-24T02:17:24;9.40;99.90
15906;DHT22;8051;50.820;4.884;2022-12-24T02:20:17;9.40;99.90
15906;DHT22;8051;50.820;4.884;2022-12-24T02:23:03;9.20;99.90
15906;DHT22;8051;50.820;4.884;2022-12-24T02:25:44;9.10;99.90
15906;DHT22;8051;50.820;4.884;2022-12-24T02:28:28;9.00;99.90
15906;DHT22;8051;50.820;4.884;2022-12-24T02:31:07;9.10;99.90
15906;DHT22;8051;50.820;4.884;2022-12-24T02:33:41;9.10;99.90
15906;DHT22;8051;50.820;4.884;2022-12-24T02:36:16;9.20;99.90
15906;DHT22;8051;50.820;4.884;2022-12-24T02:38:49;9.30;99.90
15906;DHT22;8051;50.820;4.884;2022-12-24T02:41:21;9.40;99.90
15906;DHT22;8051;50.820;4.884;2022-12-24T02:43:52;9.40;99.90
15906;DHT22;8051;50.820;4.884;2022-12-24T02:46:25;9.40;99.90
15906;DHT22;8051;50.820;4.884;2022-12-24T02:48:53;9.50;99.90
15906;DHT22;8051;50.820;4.884;2022-12-24T02:51:23;9.50;99.90
15906;DHT22;8051;50.820;4.884;2022-12-24T02:53:51;9.60;99.90
15906;DHT22;8051;50.820;4.884;2022-12-24T02:56:41;9.60;99.90
15906;DHT22;8051;50.820;4.884;2022-12-24T02:59:33;9.60;99.90
15906;DHT22;8051;50.820;4.884;2022-12-24T03:02:11;9.70;99.90
15906;DHT22;8051;50.820;4.884;2022-12-24T03:04:47;9.80;99.90
15906;DHT22;8051;50.820;4.884;2022-12-24T03:07:20;9.80;99.90
15906;DHT22;8051;50.820;4.884;2022-12-24T03:10:06;9.90;99.90
15906;DHT22;8051;50.820;4.884;2022-12-24T03:12:39;9.90;99.90
15906;DHT22;8051;50.820;4.884;2022-12-24T03:15:12;9.90;99.90
15906;DHT22;8051;50.820;4.884;2022-12-24T03:17:44;9.90;99.90
15906;DHT22;8051;50.820;4.884;2022-12-24T03:20:15;10.00;99.90
15906;DHT22;8051;50.820;4.884;2022-12-24T03:22:45;10.00;99.90
15906;DHT22;8051;50.820;4.884;2022-12-24T03:25:12;9.90;99.90
15906;DHT22;8051;50.820;4.884;2022-12-24T03:27:40;9.90;99.90
15906;DHT22;8051;50.820;4.884;2022-12-24T03:30:10;9.80;99.90
15906;DHT22;8051;50.820;4.884;2022-12-24T03:32:39;9.70;99.90
15906;DHT22;8051;50.820;4.884;2022-12-24T03:35:08;9.70;99.90
15906;DHT22;8051;50.820;4.884;2022-12-24T03:37:36;9.70;99.90
15906;DHT22;8051;50.820;4.884;2022-12-24T03:40:05;9.70;99.90
15906;DHT22;8051;50.820;4.884;2022-12-24T03:42:32;9.70;99.90
15906;DHT22;8051;50.820;4.884;2022-12-24T03:45:00;9.70;99.90
15906;DHT22;8051;50.820;4.884;2022-12-24T03:47:27;9.70;99.90
15906;DHT22;8051;50.820;4.884;2022-12-24T03:49:55;9.70;99.90
15906;DHT22;8051;50.820;4.884;2022-12-24T03:52:23;9.60;99.90
15906;DHT22;8051;50.820;4.884;2022-12-24T03:54:51;9.60;99.90
15906;DHT22;8051;50.820;4.884;2022-12-24T03:57:19;9.50;99.90
15906;DHT22;8051;50.820;4.884;2022-12-24T03:59:46;9.40;99.90
15906;DHT22;8051;50.820;4.884;2022-12-24T04:02:14;9.40;99.90
15906;DHT22;8051;50.820;4.884;2022-12-24T04:04:41;9.40;99.90
15906;DHT22;8051;50.820;4.884;2022-12-24T04:07:08;9.40;99.90
15906;DHT22;8051;50.820;4.884;2022-12-24T04:09:37;9.40;99.90
15906;DHT22;8051;50.820;4.884;2022-12-24T04:12:06;9.40;99.90
15906;DHT22;8051;50.820;4.884;2022-12-24T04:14:33;9.40;99.90
15906;DHT22;8051;50.820;4.884;2022-12-24T04:17:01;9.50;99.90
15906;DHT22;8051;50.820;4.884;2022-12-24T04:19:28;9.50;99.90
15906;DHT22;8051;50.820;4.884;2022-12-24T04:21:56;9.50;99.90
15906;DHT22;8051;50.820;4.884;2022-12-24T04:24:23;9.50;99.90
15906;DHT22;8051;50.820;4.884;2022-12-24T04:26:52;9.40;99.90
15906;DHT22;8051;50.820;4.884;2022-12-24T04:29:20;9.40;99.90
15906;DHT22;8051;50.820;4.884;2022-12-24T04:31:47;9.30;99.90
15906;DHT22;8051;50.820;4.884;2022-12-24T04:34:14;9.30;99.90
15906;DHT22;8051;50.820;4.884;2022-12-24T04:36:41;9.30;99.90
15906;DHT22;8051;50.820;4.884;2022-12-24T04:39:09;9.30;99.90
15906;DHT22;8051;50.820;4.884;2022-12-24T04:41:36;9.20;99.90
15906;DHT22;8051;50.820;4.884;2022-12-24T04:44:05;9.30;99.90
15906;DHT22;8051;50.820;4.884;2022-12-24T04:46:33;9.40;99.90
15906;DHT22;8051;50.820;4.884;2022-12-24T04:49:00;9.50;99.90
15906;DHT22;8051;50.820;4.884;2022-12-24T04:51:28;9.60;99.90
15906;DHT22;8051;50.820;4.884;2022-12-24T04:53:56;9.70;99.90
15906;DHT22;8051;50.820;4.884;2022-12-24T04:56:25;9.80;99.90
15906;DHT22;8051;50.820;4.884;2022-12-24T04:58:54;9.70;99.90
15906;DHT22;8051;50.820;4.884;2022-12-24T05:01:24;9.70;99.90
15906;DHT22;8051;50.820;4.884;2022-12-24T05:03:52;9.70;99.90
15906;DHT22;8051;50.820;4.884;2022-12-24T05:06:22;9.60;99.90
15906;DHT22;8051;50.820;4.884;2022-12-24T05:08:52;9.50;99.90
15906;DHT22;8051;50.820;4.884;2022-12-24T05:11:20;9.60;99.90
15906;DHT22;8051;50.820;4.884;2022-12-24T05:13:47;9.50;99.90
15906;DHT22;8051;50.820;4.884;2022-12-24T05:16:16;9.60;99.90
15906;DHT22;8051;50.820;4.884;2022-12-24T05:18:45;9.60;99.90
15906;DHT22;8051;50.820;4.884;2022-12-24T05:21:14;9.50;99.90
15906;DHT22;8051;50.820;4.884;2022-12-24T05:23:41;9.50;99.90
15906;DHT22;8051;50.820;4.884;2022-12-24T05:26:29;9.50;99.90
15906;DHT22;8051;50.820;4.884;2022-12-24T05:28:59;9.50;99.90
15906;DHT22;8051;50.820;4.884;2022-12-24T05:31:28;9.40;99.90
15906;DHT22;8051;50.820;4.884;2022-12-24T05:33:57;9.40;99.90
15906;DHT22;8051;50.820;4.884;2022-12-24T05:36:25;9.40;99.90
15906;DHT22;8051;50.820;4.884;2022-12-24T05:38:52;9.40;99.90
15906;DHT22;8051;50.820;4.884;2022-12-24T05:41:20;9.40;99.90
15906;DHT22;8051;50.820;4.884;2022-12-24T05:43:48;9.30;99.90
15906;DHT22;8051;50.820;4.884;2022-12-24T05:46:17;9.20;99.90
15906;DHT22;8051;50.820;4.884;2022-12-24T05:48:45;9.20;99.90
15906;DHT22;8051;50.820;4.884;2022-12-24T05:51:16;9.30;99.90
15906;DHT22;8051;50.820;4.884;2022-12-24T05:53:44;9.30;99.90
15906;DHT22;8051;50.820;4.884;2022-12-24T05:56:13;9.30;99.90
15906;DHT22;8051;50.820;4.884;2022-12-24T05:58:41;9.30;99.90
15906;DHT22;8051;50.820;4.884;2022-12-24T06:01:10;9.40;99.90
15906;DHT22;8051;50.820;4.884;2022-12-24T06:03:38;9.30;99.90
15906;DHT22;8051;50.820;4.884;2022-12-24T06:06:07;9.30;99.90
15906;DHT22;8051;50.820;4.884;2022-12-24T06:08:37;9.30;99.90
15906;DHT22;8051;50.820;4.884;2022-12-24T06:11:06;9.30;99.90
15906;DHT22;8051;50.820;4.884;2022-12-24T06:13:35;9.30;99.90
15906;DHT22;8051;50.820;4.884;2022-12-24T06:16:04;9.30;99.90
15906;DHT22;8051;50.820;4.884;2022-12-24T06:18:33;9.30;99.90
15906;DHT22;8051;50.820;4.884;2022-12-24T06:21:02;9.30;99.90
15906;DHT22;8051;50.820;4.884;2022-12-24T06:23:31;9.30;99.90
15906;DHT22;8051;50.820;4.884;2022-12-24T06:26:01;9.30;99.90
15906;DHT22;8051;50.820;4.884;2022-12-24T06:28:29;9.40;99.90
15906;DHT22;8051;50.820;4.884;2022-12-24T06:30:57;9.40;99.90
15906;DHT22;8051;50.820;4.884;2022-12-24T06:33:26;9.50;99.90
15906;DHT22;8051;50.820;4.884;2022-12-24T06:35:53;9.50;99.90
15906;DHT22;8051;50.820;4.884;2022-12-24T06:38:21;9.50;99.90
15906;DHT22;8051;50.820;4.884;2022-12-24T06:40:49;9.60;99.90
15906;DHT22;8051;50.820;4.884;2022-12-24T06:43:18;9.60;99.90
15906;DHT22;8051;50.820;4.884;2022-12-24T06:45:46;9.70;99.90
15906;DHT22;8051;50.820;4.884;2022-12-24T06:48:14;9.70;99.90
15906;DHT22;8051;50.820;4.884;2022-12-24T06:50:42;9.70;99.90
15906;DHT22;8051;50.820;4.884;2022-12-24T06:53:10;9.70;99.90
15906;DHT22;8051;50.820;4.884;2022-12-24T06:55:38;9.70;99.90
15906;DHT22;8051;50.820;4.884;2022-12-24T06:58:05;9.70;99.90
15906;DHT22;8051;50.820;4.884;2022-12-24T07:00:35;9.70;99.90
15906;DHT22;8051;50.820;4.884;2022-12-24T07:03:02;9.60;99.90
15906;DHT22;8051;50.820;4.884;2022-12-24T07:05:30;9.70;99.90
15906;DHT22;8051;50.820;4.884;2022-12-24T07:07:57;9.60;99.90
15906;DHT22;8051;50.820;4.884;2022-12-24T07:10:25;9.60;99.90
15906;DHT22;8051;50.820;4.884;2022-12-24T07:12:52;9.60;99.90
15906;DHT22;8051;50.820;4.884;2022-12-24T07:15:20;9.60;99.90
15906;DHT22;8051;50.820;4.884;2022-12-24T07:17:49;9.60;99.90
15906;DHT22;8051;50.820;4.884;2022-12-24T07:20:16;9.60;99.90
15906;DHT22;8051;50.820;4.884;2022-12-24T07:22:44;9.60;99.90
15906;DHT22;8051;50.820;4.884;2022-12-24T07:25:11;9.50;99.90
15906;DHT22;8051;50.820;4.884;2022-12-24T07:27:40;9.50;99.90
15906;DHT22;8051;50.820;4.884;2022-12-24T07:30:08;9.50;99.90
15906;DHT22;8051;50.820;4.884;2022-12-24T07:32:36;9.50;99.90
15906;DHT22;8051;50.820;4.884;2022-12-24T07:35:06;9.50;99.90
15906;DHT22;8051;50.820;4.884;2022-12-24T07:37:33;9.50;99.90
15906;DHT22;8051;50.820;4.884;2022-12-24T07:40:01;9.50;99.90
15906;DHT22;8051;50.820;4.884;2022-12-24T07:42:31;9.50;99.90
15906;DHT22;8051;50.820;4.884;2022-12-24T07:44:58;9.50;99.90
15906;DHT22;8051;50.820;4.884;2022-12-24T07:47:26;9.40;99.90
15906;DHT22;8051;50.820;4.884;2022-12-24T07:49:53;9.40;99.90
15906;DHT22;8051;50.820;4.884;2022-12-24T07:52:22;9.40;99.90
15906;DHT22;8051;50.820;4.884;2022-12-24T07:54:49;9.30;99.90
15906;DHT22;8051;50.820;4.884;2022-12-24T07:57:17;9.30;99.90
15906;DHT22;8051;50.820;4.884;2022-12-24T07:59:44;9.30;99.90
15906;DHT22;8051;50.820;4.884;2022-12-24T08:02:12;9.20;99.90
15906;DHT22;8051;50.820;4.884;2022-12-24T08:04:40;9.20;99.90
15906;DHT22;8051;50.820;4.884;2022-12-24T08:07:07;9.20;99.90
15906;DHT22;8051;50.820;4.884;2022-12-24T08:09:37;9.20;99.90
15906;DHT22;8051;50.820;4.884;2022-12-24T08:12:05;9.20;99.90
15906;DHT22;8051;50.820;4.884;2022-12-24T08:14:32;9.20;99.90
15906;DHT22;8051;50.820;4.884;2022-12-24T08:17:00;9.20;99.90
15906;DHT22;8051;50.820;4.884;2022-12-24T08:19:27;9.30;99.90
15906;DHT22;8051;50.820;4.884;2022-12-24T08:21:55;9.30;99.90
15906;DHT22;8051;50.820;4.884;2022-12-24T08:24:22;9.30;99.90
15906;DHT22;8051;50.820;4.884;2022-12-24T08:26:51;9.40;99.90
15906;DHT22;8051;50.820;4.884;2022-12-24T08:29:18;9.40;99.90
15906;DHT22;8051;50.820;4.884;2022-12-24T08:31:46;9.40;99.90
15906;DHT22;8051;50.820;4.884;2022-12-24T08:34:13;9.40;99.90
15906;DHT22;8051;50.820;4.884;2022-12-24T08:36:41;9.50;99.90
15906;DHT22;8051;50.820;4.884;2022-12-24T08:39:09;9.50;99.90
15906;DHT22;8051;50.820;4.884;2022-12-24T08:41:36;9.60;99.90
15906;DHT22;8051;50.820;4.884;2022-12-24T08:44:05;9.70;99.90
15906;DHT22;8051;50.820;4.884;2022-12-24T08:46:33;9.70;99.90
15906;DHT22;8051;50.820;4.884;2022-12-24T08:49:00;9.80;99.90
15906;DHT22;8051;50.820;4.884;2022-12-24T08:51:28;9.90;99.90
15906;DHT22;8051;50.820;4.884;2022-12-24T08:53:55;9.90;99.90
15906;DHT22;8051;50.820;4.884;2022-12-24T08:56:23;10.00;99.90
15906;DHT22;8051;50.820;4.884;2022-12-24T08:58:50;10.00;99.90
15906;DHT22;8051;50.820;4.884;2022-12-24T09:01:19;10.00;99.90
15906;DHT22;8051;50.820;4.884;2022-12-24T09:03:47;10.00;99.90
15906;DHT22;8051;50.820;4.884;2022-12-24T09:06:15;10.00;99.90
15906;DHT22;8051;50.820;4.884;2022-12-24T09:08:42;10.00;99.90
15906;DHT22;8051;50.820;4.884;2022-12-24T09:11:11;10.00;99.90
15906;DHT22;8051;50.820;4.884;2022-12-24T09:13:39;10.10;99.90
15906;DHT22;8051;50.820;4.884;2022-12-24T09:16:07;10.20;99.90
15906;DHT22;8051;50.820;4.884;2022-12-24T09:18:36;10.10;99.90
15906;DHT22;8051;50.820;4.884;2022-12-24T09:21:06;10.20;99.90
15906;DHT22;8051;50.820;4.884;2022-12-24T09:23:34;10.20;99.90
15906;DHT22;8051;50.820;4.884;2022-12-24T09:26:05;10.30;99.90
15906;DHT22;8051;50.820;4.884;2022-12-24T09:28:33;10.30;99.90
15906;DHT22;8051;50.820;4.884;2022-12-24T09:31:01;10.30;99.90
15906;DHT22;8051;50.820;4.884;2022-12-24T09:33:31;10.30;99.90
15906;DHT22;8051;50.820;4.884;2022-12-24T09:36:01;10.30;99.90
15906;DHT22;8051;50.820;4.884;2022-12-24T09:38:28;10.30;99.90
15906;DHT22;8051;50.820;4.884;2022-12-24T09:40:56;10.40;99.90
15906;DHT22;8051;50.820;4.884;2022-12-24T09:43:26;10.50;99.90
15906;DHT22;8051;50.820;4.884;2022-12-24T09:46:05;10.60;99.90
15906;DHT22;8051;50.820;4.884;2022-12-24T09:48:36;10.60;99.90
15906;DHT22;8051;50.820;4.884;2022-12-24T09:51:08;10.70;99.90
15906;DHT22;8051;50.820;4.884;2022-12-24T09:53:39;10.70;99.90
15906;DHT22;8051;50.820;4.884;2022-12-24T09:56:13;10.70;99.90
15906;DHT22;8051;50.820;4.884;2022-12-24T09:58:44;10.70;99.90
15906;DHT22;8051;50.820;4.884;2022-12-24T10:01:15;10.70;99.90
15906;DHT22;8051;50.820;4.884;2022-12-24T10:03:44;10.70;99.90
15906;DHT22;8051;50.820;4.884;2022-12-24T10:06:15;10.70;99.90
15906;DHT22;8051;50.820;4.884;2022-12-24T10:08:54;10.80;99.90
15906;DHT22;8051;50.820;4.884;2022-12-24T10:11:28;10.90;99.90
15906;DHT22;8051;50.820;4.884;2022-12-24T10:14:15;10.90;99.90
15906;DHT22;8051;50.820;4.884;2022-12-24T10:16:54;11.00;99.90
15906;DHT22;8051;50.820;4.884;2022-12-24T10:19:30;11.00;99.90
15906;DHT22;8051;50.820;4.884;2022-12-24T10:22:06;11.10;99.90
15906;DHT22;8051;50.820;4.884;2022-12-24T10:24:42;11.10;99.90
15906;DHT22;8051;50.820;4.884;2022-12-24T10:27:14;11.10;99.90
15906;DHT22;8051;50.820;4.884;2022-12-24T10:29:45;11.10;99.90
15906;DHT22;8051;50.820;4.884;2022-12-24T10:32:19;11.10;99.90
15906;DHT22;8051;50.820;4.884;2022-12-24T10:34:51;11.20;99.90
15906;DHT22;8051;50.820;4.884;2022-12-24T10:37:25;11.20;99.90
15906;DHT22;8051;50.820;4.884;2022-12-24T10:39:53;11.30;99.90
15906;DHT22;8051;50.820;4.884;2022-12-24T10:42:23;11.20;99.90
15906;DHT22;8051;50.820;4.884;2022-12-24T10:45:02;11.30;99.90
15906;DHT22;8051;50.820;4.884;2022-12-24T10:47:31;11.30;99.90
15906;DHT22;8051;50.820;4.884;2022-12-24T10:50:03;11.30;99.90
15906;DHT22;8051;50.820;4.884;2022-12-24T10:52:35;11.30;99.90
15906;DHT22;8051;50.820;4.884;2022-12-24T10:55:09;11.30;99.90
15906;DHT22;8051;50.820;4.884;2022-12-24T10:57:38;11.20;99.90
15906;DHT22;8051;50.820;4.884;2022-12-24T11:00:17;11.20;99.90
15906;DHT22;8051;50.820;4.884;2022-12-24T11:02:46;11.10;99.90
15906;DHT22;8051;50.820;4.884;2022-12-24T11:05:28;11.10;99.90
15906;DHT22;8051;50.820;4.884;2022-12-24T11:08:01;11.10;99.90
15906;DHT22;8051;50.820;4.884;2022-12-24T11:10:29;11.10;99.90
15906;DHT22;8051;50.820;4.884;2022-12-24T11:12:57;11.10;99.90
15906;DHT22;8051;50.820;4.884;2022-12-24T11:15:28;11.20;99.90
15906;DHT22;8051;50.820;4.884;2022-12-24T11:17:59;11.20;99.90
15906;DHT22;8051;50.820;4.884;2022-12-24T11:20:30;11.30;99.90
15906;DHT22;8051;50.820;4.884;2022-12-24T11:23:00;11.50;99.90
15906;DHT22;8051;50.820;4.884;2022-12-24T11:25:29;11.60;99.90
15906;DHT22;8051;50.820;4.884;2022-12-24T11:28:10;11.70;99.90
15906;DHT22;8051;50.820;4.884;2022-12-24T11:30:38;11.90;99.90
15906;DHT22;8051;50.820;4.884;2022-12-24T11:33:16;12.00;99.90
15906;DHT22;8051;50.820;4.884;2022-12-24T11:35:54;11.90;99.90
15906;DHT22;8051;50.820;4.884;2022-12-24T11:38:25;12.00;99.90
15906;DHT22;8051;50.820;4.884;2022-12-24T11:41:07;12.00;99.90
15906;DHT22;8051;50.820;4.884;2022-12-24T11:43:46;12.00;99.90
15906;DHT22;8051;50.820;4.884;2022-12-24T11:46:20;11.80;99.90
15906;DHT22;8051;50.820;4.884;2022-12-24T11:48:48;11.70;99.90
15906;DHT22;8051;50.820;4.884;2022-12-24T11:51:31;11.60;99.90
15906;DHT22;8051;50.820;4.884;2022-12-24T11:54:07;11.70;99.90
15906;DHT22;8051;50.820;4.884;2022-12-24T11:56:42;11.80;99.90
15906;DHT22;8051;50.820;4.884;2022-12-24T11:59:16;11.90;99.90
15906;DHT22;8051;50.820;4.884;2022-12-24T12:01:51;12.00;99.90
15906;DHT22;8051;50.820;4.884;2022-12-24T12:04:23;12.10;99.90
15906;DHT22;8051;50.820;4.884;2022-12-24T12:06:54;12.10;99.90
15906;DHT22;8051;50.820;4.884;2022-12-24T12:09:27;12.10;99.90
15906;DHT22;8051;50.820;4.884;2022-12-24T12:12:00;12.10;99.90
15906;DHT22;8051;50.820;4.884;2022-12-24T12:14:36;12.10;99.90
15906;DHT22;8051;50.820;4.884;2022-12-24T12:17:13;12.20;99.90
15906;DHT22;8051;50.820;4.884;2022-12-24T12:19:46;12.40;99.90
15906;DHT22;8051;50.820;4.884;2022-12-24T12:22:22;12.40;99.90
15906;DHT22;8051;50.820;4.884;2022-12-24T12:24:54;12.50;99.90
15906;DHT22;8051;50.820;4.884;2022-12-24T12:27:26;12.70;99.90
15906;DHT22;8051;50.820;4.884;2022-12-24T12:29:57;12.90;99.90
15906;DHT22;8051;50.820;4.884;2022-12-24T12:32:30;12.90;99.90
15906;DHT22;8051;50.820;4.884;2022-12-24T12:35:14;12.90;99.90
15906;DHT22;8051;50.820;4.884;2022-12-24T12:37:52;13.00;99.90
15906;DHT22;8051;50.820;4.884;2022-12-24T12:40:37;13.00;99.90
15906;DHT22;8051;50.820;4.884;2022-12-24T12:43:20;13.10;99.90
15906;DHT22;8051;50.820;4.884;2022-12-24T12:45:54;13.00;99.90
15906;DHT22;8051;50.820;4.884;2022-12-24T12:48:48;13.00;99.90
15906;DHT22;8051;50.820;4.884;2022-12-24T12:51:26;12.90;99.90
15906;DHT22;8051;50.820;4.884;2022-12-24T12:54:16;12.90;99.90
15906;DHT22;8051;50.820;4.884;2022-12-24T12:56:49;12.90;99.90
15906;DHT22;8051;50.820;4.884;2022-12-24T12:59:25;12.80;99.90
15906;DHT22;8051;50.820;4.884;2022-12-24T13:02:03;12.80;99.90
15906;DHT22;8051;50.820;4.884;2022-12-24T13:05:18;12.80;99.90
15906;DHT22;8051;50.820;4.884;2022-12-24T13:08:07;12.80;99.90
15906;DHT22;8051;50.820;4.884;2022-12-24T13:11:02;12.70;99.90
15906;DHT22;8051;50.820;4.884;2022-12-24T13:13:50;12.60;99.90
15906;DHT22;8051;50.820;4.884;2022-12-24T13:16:43;12.60;99.90
15906;DHT22;8051;50.820;4.884;2022-12-24T13:19:27;12.60;99.90
15906;DHT22;8051;50.820;4.884;2022-12-24T13:22:00;12.50;99.90
15906;DHT22;8051;50.820;4.884;2022-12-24T13:24:29;12.50;99.90
15906;DHT22;8051;50.820;4.884;2022-12-24T13:27:06;12.50;99.90
15906;DHT22;8051;50.820;4.884;2022-12-24T13:29:51;12.50;99.90
15906;DHT22;8051;50.820;4.884;2022-12-24T13:32:39;12.50;99.90
15906;DHT22;8051;50.820;4.884;2022-12-24T13:35:33;12.50;99.90
15906;DHT22;8051;50.820;4.884;2022-12-24T13:47:20;12.60;99.90
15906;DHT22;8051;50.820;4.884;2022-12-24T13:49:50;12.60;99.90
15906;DHT22;8051;50.820;4.884;2022-12-24T13:52:25;12.70;99.90
15906;DHT22;8051;50.820;4.884;2022-12-24T13:55:15;12.80;99.90
15906;DHT22;8051;50.820;4.884;2022-12-24T13:57:55;12.70;99.90
15906;DHT22;8051;50.820;4.884;2022-12-24T14:00:51;12.60;99.90
15906;DHT22;8051;50.820;4.884;2022-12-24T14:03:27;12.70;99.90
15906;DHT22;8051;50.820;4.884;2022-12-24T14:05:58;12.60;99.90
15906;DHT22;8051;50.820;4.884;2022-12-24T14:08:31;12.50;99.90
15906;DHT22;8051;50.820;4.884;2022-12-24T14:11:05;12.50;99.90
15906;DHT22;8051;50.820;4.884;2022-12-24T14:16:48;12.60;99.90
15906;DHT22;8051;50.820;4.884;2022-12-24T14:19:20;12.70;99.90
15906;DHT22;8051;50.820;4.884;2022-12-24T14:21:54;12.70;99.90
15906;DHT22;8051;50.820;4.884;2022-12-24T14:24:25;12.70;99.90
15906;DHT22;8051;50.820;4.884;2022-12-24T14:26:55;12.80;99.90
15906;DHT22;8051;50.820;4.884;2022-12-24T14:29:26;12.60;99.90
15906;DHT22;8051;50.820;4.884;2022-12-24T14:31:56;12.60;99.90
15906;DHT22;8051;50.820;4.884;2022-12-24T14:34:25;12.60;99.90
15906;DHT22;8051;50.820;4.884;2022-12-24T14:36:54;12.70;99.90
15906;DHT22;8051;50.820;4.884;2022-12-24T14:39:27;12.60;99.90
15906;DHT22;8051;50.820;4.884;2022-12-24T14:42:05;12.50;99.90
15906;DHT22;8051;50.820;4.884;2022-12-24T14:44:41;12.50;99.90
15906;DHT22;8051;50.820;4.884;2022-12-24T14:47:24;12.30;99.90
15906;DHT22;8051;50.820;4.884;2022-12-24T14:50:12;12.30;99.90
15906;DHT22;8051;50.820;4.884;2022-12-24T14:52:47;12.00;99.90
15906;DHT22;8051;50.820;4.884;2022-12-24T14:55:30;11.80;99.90
15906;DHT22;8051;50.820;4.884;2022-12-24T14:58:21;11.70;99.90
15906;DHT22;8051;50.820;4.884;2022-12-24T15:00:50;11.60;99.90
15906;DHT22;8051;50.820;4.884;2022-12-24T15:03:20;11.50;99.90
15906;DHT22;8051;50.820;4.884;2022-12-24T15:05:52;11.40;99.90
15906;DHT22;8051;50.820;4.884;2022-12-24T15:08:27;11.30;99.90
15906;DHT22;8051;50.820;4.884;2022-12-24T15:10:59;11.20;99.90
15906;DHT22;8051;50.820;4.884;2022-12-24T15:13:32;11.10;99.90
15906;DHT22;8051;50.820;4.884;2022-12-24T15:16:02;11.00;99.90
15906;DHT22;8051;50.820;4.884;2022-12-24T15:18:32;10.90;99.90
15906;DHT22;8051;50.820;4.884;2022-12-24T15:21:04;10.80;99.90
15906;DHT22;8051;50.820;4.884;2022-12-24T15:23:34;10.80;99.90
15906;DHT22;8051;50.820;4.884;2022-12-24T15:26:07;10.70;99.90
15906;DHT22;8051;50.820;4.884;2022-12-24T15:28:36;10.70;99.90
15906;DHT22;8051;50.820;4.884;2022-12-24T15:31:07;10.60;99.90
15906;DHT22;8051;50.820;4.884;2022-12-24T15:33:36;10.50;99.90
15906;DHT22;8051;50.820;4.884;2022-12-24T15:36:07;10.50;99.90
15906;DHT22;8051;50.820;4.884;2022-12-24T15:38:36;10.40;99.90
15906;DHT22;8051;50.820;4.884;2022-12-24T15:41:13;10.30;99.90
15906;DHT22;8051;50.820;4.884;2022-12-24T15:43:43;10.20;99.90
15906;DHT22;8051;50.820;4.884;2022-12-24T15:46:18;10.10;99.90
15906;DHT22;8051;50.820;4.884;2022-12-24T15:48:47;10.00;99.90
15906;DHT22;8051;50.820;4.884;2022-12-24T15:51:23;9.90;99.90
15906;DHT22;8051;50.820;4.884;2022-12-24T15:53:57;9.80;99.90
15906;DHT22;8051;50.820;4.884;2022-12-24T15:56:31;9.70;99.90
15906;DHT22;8051;50.820;4.884;2022-12-24T15:59:20;9.70;99.90
15906;DHT22;8051;50.820;4.884;2022-12-24T16:01:49;9.60;99.90
15906;DHT22;8051;50.820;4.884;2022-12-24T16:04:21;9.50;99.90
15906;DHT22;8051;50.820;4.884;2022-12-24T16:06:57;9.50;99.90
15906;DHT22;8051;50.820;4.884;2022-12-24T16:09:40;9.30;99.90
15906;DHT22;8051;50.820;4.884;2022-12-24T16:12:16;9.30;99.90
15906;DHT22;8051;50.820;4.884;2022-12-24T16:14:47;9.20;99.90
15906;DHT22;8051;50.820;4.884;2022-12-24T16:17:19;9.10;99.90
15906;DHT22;8051;50.820;4.884;2022-12-24T16:19:48;9.00;99.90
15906;DHT22;8051;50.820;4.884;2022-12-24T16:22:19;8.90;99.90
15906;DHT22;8051;50.820;4.884;2022-12-24T16:25:02;8.90;99.90
15906;DHT22;8051;50.820;4.884;2022-12-24T16:27:41;8.90;99.90
15906;DHT22;8051;50.820;4.884;2022-12-24T16:30:11;8.80;99.90
15906;DHT22;8051;50.820;4.884;2022-12-24T16:32:39;8.80;99.90
15906;DHT22;8051;50.820;4.884;2022-12-24T16:35:20;8.80;99.90